Time;durP1;ratioP1;P1;durP2;ratioP2;P2;SDS_P1;SDS_P2;PMS_P1;PMS_P2;Temp;Humidity;BMP_temperature;BMP_pressure;BME280_temperature;BME280_humidity;BME280_pressure;Samples;Min_cycle;Max_cycle;Signal;HPM_P1;HPM_P2
2022/06/11 00:01:48;;;;;;;9.23;7.22;;;;;;;18.45;73.63;94864.59;5004778;28;20030;-82
2022/06/11 00:04:16;;;;;;;9.13;7.88;;;;;;;18.46;73.40;94861.63;5023606;28;20061;-81
2022/06/11 00:06:44;;;;;;;8.95;7.85;;;;;;;18.40;74.21;94857.16;5004387;28;20079;-82
2022/06/11 00:09:10;;;;;;;8.27;7.32;;;;;;;18.45;73.34;94851.84;5006278;28;20034;-83
2022/06/11 00:11:36;;;;;;;10.80;7.85;;;;;;;18.39;73.00;94853.63;5006336;28;20026;-83
2022/06/11 00:14:02;;;;;;;8.93;7.80;;;;;;;18.46;72.12;94864.34;4989021;28;20056;-83
2022/06/11 00:16:27;;;;;;;9.93;7.70;;;;;;;18.44;72.51;94873.81;5006175;28;20040;-85
2022/06/11 00:18:56;;;;;;;9.68;7.53;;;;;;;18.44;73.33;94854.81;4988135;28;20025;-83
2022/06/11 00:21:24;;;;;;;9.65;8.05;;;;;;;18.40;74.16;94858.00;5022377;28;20026;-83
2022/06/11 00:23:49;;;;;;;9.10;7.55;;;;;;;18.44;74.25;94857.50;5003858;28;20030;-83
2022/06/11 00:26:15;;;;;;;10.82;8.18;;;;;;;18.47;74.80;94848.88;5006160;28;20481;-83
2022/06/11 00:28:40;;;;;;;9.45;7.60;;;;;;;18.49;74.53;94857.63;4988537;28;20535;-84
2022/06/11 00:31:06;;;;;;;10.18;7.75;;;;;;;18.41;73.68;94859.63;4989374;28;20057;-82
2022/06/11 00:33:32;;;;;;;9.32;7.90;;;;;;;18.44;73.81;94860.22;5005264;28;20026;-84
2022/06/11 00:35:57;;;;;;;8.65;7.72;;;;;;;18.40;74.33;94868.84;4988450;28;20038;-83
2022/06/11 00:38:23;;;;;;;9.00;7.18;;;;;;;18.43;73.30;94864.03;5025364;28;20026;-83
2022/06/11 00:40:50;;;;;;;10.15;8.05;;;;;;;18.46;73.15;94864.34;4990303;28;20068;-84
2022/06/11 00:43:15;;;;;;;11.18;8.73;;;;;;;18.46;73.85;94867.06;4989883;28;20022;-83
2022/06/11 00:45:41;;;;;;;15.82;8.30;;;;;;;18.45;74.66;94859.16;5003981;28;20032;-83
2022/06/11 00:48:14;;;;;;;8.82;7.80;;;;;;;18.39;74.94;94867.19;5006840;28;20029;-82
2022/06/11 00:50:43;;;;;;;9.75;8.30;;;;;;;18.40;74.94;94862.59;5004776;28;20088;-82
2022/06/11 00:53:12;;;;;;;9.73;7.82;;;;;;;18.34;74.61;94871.69;5004942;28;20482;-83
2022/06/11 00:55:38;;;;;;;9.60;8.35;;;;;;;18.30;74.76;94868.63;5022177;28;20057;-84
2022/06/11 00:58:06;;;;;;;10.30;8.05;;;;;;;18.23;74.77;94868.75;4987605;28;20030;-84
2022/06/11 01:00:39;;;;;;;9.43;7.78;;;;;;;18.27;74.34;94869.94;4973655;28;20113;-83
2022/06/11 01:03:04;;;;;;;9.75;7.95;;;;;;;18.25;74.75;94877.50;4988967;28;20363;-85
2022/06/11 01:05:32;;;;;;;9.30;8.18;;;;;;;18.30;75.05;94874.06;5006198;28;20022;-83
2022/06/11 01:08:08;;;;;;;9.38;8.38;;;;;;;18.29;75.50;94886.00;4990127;28;20507;-84
2022/06/11 01:11:04;;;;;;;12.15;8.75;;;;;;;18.30;75.57;94879.50;5009017;28;20080;-83
2022/06/11 01:13:32;;;;;;;10.15;8.07;;;;;;;18.22;75.27;94877.97;5011042;28;20034;-85
2022/06/11 01:16:11;;;;;;;10.60;8.77;;;;;;;18.22;75.62;94877.97;5007909;28;20125;-84
2022/06/11 01:18:40;;;;;;;10.63;8.35;;;;;;;18.27;75.22;94869.94;5009895;28;20060;-82
2022/06/11 01:21:21;;;;;;;11.38;8.30;;;;;;;18.23;74.97;94867.97;5009463;28;20034;-85
2022/06/11 01:24:23;;;;;;;10.93;8.85;;;;;;;18.17;75.44;94875.16;4992761;28;20104;-84
2022/06/11 01:26:58;;;;;;;9.48;8.15;;;;;;;18.22;75.36;94869.00;5008406;28;20042;-84
2022/06/11 01:29:48;;;;;;;8.98;7.80;;;;;;;18.25;75.33;94865.84;5006912;28;20136;-83
2022/06/11 01:32:16;;;;;;;9.38;7.90;;;;;;;18.22;75.09;94871.72;4993610;28;20495;-83
2022/06/11 01:34:52;;;;;;;9.45;8.10;;;;;;;18.20;75.88;94869.25;5008429;28;20125;-84
2022/06/11 01:37:47;;;;;;;10.10;7.97;;;;;;;18.15;75.58;94878.09;4991664;28;20093;-83
2022/06/11 01:40:25;;;;;;;10.18;7.90;;;;;;;18.18;75.16;94871.41;4993315;28;20030;-83
2022/06/11 01:43:01;;;;;;;10.13;7.45;;;;;;;18.19;75.35;94874.91;5025027;28;20456;-83
2022/06/11 01:45:33;;;;;;;8.55;7.50;;;;;;;18.19;75.02;94878.47;5007579;28;20501;-84
2022/06/11 01:47:58;;;;;;;9.82;8.02;;;;;;;18.24;75.53;94881.28;4992084;28;20487;-83
2022/06/11 01:50:25;;;;;;;9.07;7.93;;;;;;;18.28;75.32;94876.22;4990452;28;20507;-84
2022/06/11 01:52:56;;;;;;;8.98;8.07;;;;;;;18.27;74.90;94883.53;4992296;28;20033;-84
2022/06/11 01:55:42;;;;;;;10.52;7.95;;;;;;;18.25;75.39;94880.22;5007311;28;20054;-84
2022/06/11 01:58:18;;;;;;;10.23;8.13;;;;;;;18.20;75.58;94885.53;5009359;28;20061;-84
2022/06/11 02:01:04;;;;;;;8.85;7.60;;;;;;;18.19;75.61;94880.34;5013921;28;20029;-83
2022/06/11 02:03:35;;;;;;;11.38;8.00;;;;;;;18.18;76.04;94879.53;5008628;28;20491;-83
2022/06/11 02:06:18;;;;;;;9.60;8.25;;;;;;;18.11;76.07;94870.66;5009913;28;20091;-85
2022/06/11 02:08:58;;;;;;;11.38;8.68;;;;;;;18.13;76.54;94879.41;5006957;28;20141;-83
2022/06/11 02:11:27;;;;;;;10.65;7.97;;;;;;;18.15;76.60;94869.16;5008662;28;20481;-83
2022/06/11 02:14:01;;;;;;;12.50;9.35;;;;;;;18.09;76.71;94873.59;5007842;28;20032;-84
2022/06/11 02:16:47;;;;;;;10.43;8.30;;;;;;;18.10;76.71;94866.31;4990715;28;20030;-85
2022/06/11 02:19:19;;;;;;;13.93;8.30;;;;;;;18.14;76.66;94881.88;5008007;28;20609;-84
2022/06/11 02:21:53;;;;;;;11.47;8.87;;;;;;;18.11;76.46;94874.19;5023501;28;20033;-84
2022/06/11 02:24:49;;;;;;;9.73;8.60;;;;;;;18.08;76.75;94871.97;4992499;28;20069;-84
2022/06/11 02:27:17;;;;;;;11.32;8.75;;;;;;;18.05;76.56;94872.44;5010266;28;20069;-85
2022/06/11 02:29:43;;;;;;;10.68;8.50;;;;;;;18.03;76.53;94878.09;4990150;28;20048;-84
2022/06/11 02:32:11;;;;;;;10.27;7.85;;;;;;;18.06;76.97;94876.78;4991857;28;20034;-83
2022/06/11 02:34:44;;;;;;;11.63;9.00;;;;;;;18.06;76.34;94879.50;4989857;28;20034;-84
2022/06/11 02:37:18;;;;;;;10.82;8.82;;;;;;;18.01;76.98;94885.66;5008979;28;20026;-83
2022/06/11 02:39:44;;;;;;;10.27;8.40;;;;;;;18.03;76.64;94885.41;5024548;28;20056;-83
2022/06/11 02:42:12;;;;;;;11.38;8.65;;;;;;;18.05;76.35;94888.72;4990517;28;20026;-84
2022/06/11 02:44:38;;;;;;;10.45;8.38;;;;;;;18.08;76.45;94879.28;5024096;28;20037;-84
2022/06/11 02:47:03;;;;;;;10.35;8.38;;;;;;;18.09;76.64;94875.50;5006407;28;20026;-84
2022/06/11 02:49:31;;;;;;;10.82;8.55;;;;;;;18.00;76.89;94875.03;4991465;28;20041;-84
2022/06/11 02:52:00;;;;;;;10.75;8.80;;;;;;;18.02;76.48;94883.78;4990454;28;20030;-83
2022/06/11 02:54:26;;;;;;;11.02;9.02;;;;;;;18.04;76.78;94873.50;4991668;28;20053;-83
2022/06/11 02:56:52;;;;;;;10.32;8.32;;;;;;;18.04;76.07;94885.19;5022530;28;20512;-84
2022/06/11 02:59:18;;;;;;;11.15;9.68;;;;;;;17.99;76.31;94887.78;4990636;28;20037;-83
2022/06/11 03:01:44;;;;;;;11.48;9.23;;;;;;;17.96;76.38;94895.56;5023153;28;20077;-82
2022/06/11 03:04:10;;;;;;;11.65;9.57;;;;;;;17.97;76.96;94898.06;5006346;28;20563;-84
2022/06/11 03:06:38;;;;;;;13.10;9.60;;;;;;;18.06;76.37;94895.78;5023039;28;20564;-83
2022/06/11 03:09:04;;;;;;;11.38;9.43;;;;;;;18.11;76.58;94890.47;5021420;28;20033;-84
2022/06/11 03:11:29;;;;;;;13.35;9.95;;;;;;;18.09;76.49;94900.75;5008258;28;20065;-85
2022/06/11 03:13:55;;;;;;;13.00;9.77;;;;;;;18.09;76.44;94898.03;5006872;28;20030;-83
2022/06/11 03:16:20;;;;;;;12.13;10.43;;;;;;;18.13;76.74;94898.41;5006704;28;20509;-82
2022/06/11 03:18:46;;;;;;;13.02;10.57;;;;;;;18.12;76.60;94903.00;5006393;28;20026;-82
2022/06/11 03:21:11;;;;;;;13.70;11.18;;;;;;;18.15;76.75;94902.53;5006116;28;20547;-83
2022/06/11 03:23:37;;;;;;;13.43;10.95;;;;;;;18.15;76.21;94899.81;5006177;28;20029;-84
2022/06/11 03:26:02;;;;;;;13.65;11.52;;;;;;;18.22;76.25;94901.56;4989069;28;20034;-84
2022/06/11 03:28:28;;;;;;;16.58;10.57;;;;;;;18.27;76.35;94907.94;4990524;28;20053;-84
2022/06/11 03:30:53;;;;;;;13.23;10.77;;;;;;;18.30;76.12;94901.22;4987998;28;20045;-85
2022/06/11 03:33:19;;;;;;;13.18;10.13;;;;;;;18.28;76.09;94908.78;4990897;28;20022;-84
2022/06/11 03:35:46;;;;;;;12.13;9.68;;;;;;;18.31;75.90;94908.31;4988530;28;20408;-84
2022/06/11 03:38:11;;;;;;;13.70;10.48;;;;;;;18.31;75.61;94905.59;5006475;28;20029;-84
2022/06/11 03:40:37;;;;;;;13.07;10.02;;;;;;;18.29;76.13;94905.00;5005949;28;20105;-84
2022/06/11 03:43:02;;;;;;;13.85;10.80;;;;;;;18.30;76.26;94909.34;5005336;28;20096;-84
2022/06/11 03:45:29;;;;;;;13.82;10.48;;;;;;;18.29;76.66;94905.00;4989627;28;20088;-85
2022/06/11 03:47:55;;;;;;;11.52;10.10;;;;;;;18.31;76.55;94913.72;4972236;28;20429;-86
2022/06/11 03:50:29;;;;;;;15.68;11.25;;;;;;;18.31;77.16;94908.31;5006322;28;20145;-85
2022/06/11 03:52:55;;;;;;;13.23;10.10;;;;;;;18.30;76.79;94906.63;5005963;28;20017;-85
2022/06/11 03:55:21;;;;;;;13.88;10.60;;;;;;;18.33;76.69;94917.00;4989370;28;20041;-83
2022/06/11 03:57:46;;;;;;;13.40;10.48;;;;;;;18.36;76.25;94916.53;4988756;28;20041;-85
2022/06/11 04:00:14;;;;;;;13.70;10.90;;;;;;;18.35;76.47;94920.31;4989208;28;20029;-83
2022/06/11 04:02:39;;;;;;;11.77;10.20;;;;;;;18.33;76.86;94914.28;5006041;28;20026;-84
2022/06/11 04:05:05;;;;;;;13.80;10.63;;;;;;;18.38;76.46;94919.84;4988286;28;20044;-85
2022/06/11 04:07:31;;;;;;;18.00;10.88;;;;;;;18.38;76.37;94921.72;4989928;28;20065;-84
2022/06/11 04:09:57;;;;;;;14.80;11.30;;;;;;;18.38;76.40;94919.84;4989967;28;20054;-83
2022/06/11 04:12:22;;;;;;;12.10;10.18;;;;;;;18.41;76.05;94913.09;5007935;28;20025;-84
2022/06/11 04:14:48;;;;;;;13.45;10.50;;;;;;;18.46;76.23;94920.56;4991447;28;20048;-83
2022/06/11 04:17:20;;;;;;;12.57;9.70;;;;;;;18.45;76.02;94922.44;5006637;28;20022;-82
2022/06/11 04:19:47;;;;;;;13.07;10.00;;;;;;;18.45;76.83;94913.44;5023180;28;20034;-84
2022/06/11 04:22:12;;;;;;;11.82;9.40;;;;;;;18.45;76.53;94918.88;4988967;28;20176;-83
2022/06/11 04:24:38;;;;;;;13.55;9.50;;;;;;;18.44;76.15;94917.25;5022285;28;20030;-84
2022/06/11 04:27:04;;;;;;;12.20;9.25;;;;;;;18.45;75.69;94919.72;4988209;28;20088;-82
2022/06/11 04:29:34;;;;;;;12.52;9.80;;;;;;;18.43;75.53;94915.59;4989549;28;20022;-85
2022/06/11 04:32:00;;;;;;;11.77;10.05;;;;;;;18.47;75.41;94922.19;4988145;28;20232;-84
2022/06/11 04:34:26;;;;;;;11.15;9.13;;;;;;;18.47;75.27;94916.75;4989754;28;20033;-83
2022/06/11 04:36:51;;;;;;;12.98;9.48;;;;;;;18.44;75.39;94923.50;5010499;28;20404;-83
2022/06/11 04:39:18;;;;;;;11.93;9.48;;;;;;;18.39;75.42;94929.63;5010089;28;20359;-84
2022/06/11 04:41:44;;;;;;;11.75;9.55;;;;;;;18.36;76.31;94926.59;4992428;28;20057;-86
2022/06/11 04:44:09;;;;;;;10.93;9.02;;;;;;;18.31;76.11;94935.44;5008542;28;20109;-84
2022/06/11 04:46:35;;;;;;;12.60;9.77;;;;;;;18.27;76.68;94931.53;5011642;28;20025;-84
2022/06/11 04:49:00;;;;;;;14.63;10.07;;;;;;;18.34;76.38;94943.13;5024857;28;20054;-84
2022/06/11 04:51:26;;;;;;;11.95;9.35;;;;;;;18.31;75.66;94934.63;5009500;28;20029;-83
2022/06/11 04:53:51;;;;;;;13.88;9.80;;;;;;;18.33;75.97;94943.34;4991941;28;20033;-84
2022/06/11 04:56:20;;;;;;;10.57;7.90;;;;;;;18.34;74.92;94951.25;4992476;28;20142;-84
2022/06/11 04:58:45;;;;;;;10.18;8.18;;;;;;;18.25;75.40;94952.69;5009880;28;20117;-83
2022/06/11 05:01:11;;;;;;;11.45;8.50;;;;;;;18.27;75.93;94955.97;5025184;28;20165;-84
2022/06/11 05:03:37;;;;;;;9.75;8.00;;;;;;;18.25;75.95;94967.06;4992425;28;20516;-82
2022/06/11 05:06:02;;;;;;;12.75;9.32;;;;;;;18.23;76.97;94971.09;5007630;28;20037;-83
2022/06/11 05:08:28;;;;;;;13.05;9.48;;;;;;;18.22;77.04;94964.81;5008761;28;20493;-83
2022/06/11 05:10:53;;;;;;;14.57;9.23;;;;;;;18.12;77.29;94954.56;5007479;28;20508;-84
2022/06/11 05:13:19;;;;;;;12.27;9.25;;;;;;;18.14;76.38;94963.31;5009052;28;20473;-83
2022/06/11 05:15:46;;;;;;;10.93;8.55;;;;;;;18.10;77.04;94963.97;5008829;28;20076;-83
2022/06/11 05:18:13;;;;;;;10.40;7.70;;;;;;;18.09;76.85;94965.84;4978046;28;20415;-84
2022/06/11 05:20:38;;;;;;;9.80;7.43;;;;;;;18.08;76.95;94961.50;4992269;28;20693;-83
2022/06/11 05:23:05;;;;;;;10.15;8.27;;;;;;;18.05;77.07;94970.13;5007865;28;20038;-84
2022/06/11 05:25:31;;;;;;;10.30;7.78;;;;;;;18.02;77.33;94970.59;4992652;28;20034;-84
2022/06/11 05:27:57;;;;;;;8.95;7.10;;;;;;;18.06;77.17;94985.31;5025335;28;20101;-83
2022/06/11 05:30:25;;;;;;;9.50;7.55;;;;;;;18.07;77.29;94980.75;5009732;28;20029;-83
2022/06/11 05:32:51;;;;;;;8.27;7.18;;;;;;;18.03;77.79;94974.94;5023780;28;20034;-83
2022/06/11 05:35:22;;;;;;;10.90;7.13;;;;;;;17.89;78.12;94977.88;4991526;28;20069;-83
2022/06/11 05:37:48;;;;;;;7.97;6.43;;;;;;;17.95;77.51;94975.28;4991992;28;20026;-84
2022/06/11 05:40:15;;;;;;;7.78;6.38;;;;;;;17.89;77.83;94975.16;5007430;28;20041;-82
2022/06/11 05:42:41;;;;;;;7.82;6.05;;;;;;;17.99;77.74;94974.59;4991711;28;20068;-83
2022/06/11 05:45:07;;;;;;;8.40;6.18;;;;;;;17.95;77.90;94980.72;5006808;28;20053;-82
2022/06/11 05:47:32;;;;;;;9.60;5.45;;;;;;;18.08;77.57;94979.66;5009319;28;20025;-84
2022/06/11 05:49:58;;;;;;;8.00;5.97;;;;;;;17.88;78.31;94981.66;4990419;28;20041;-83
2022/06/11 05:52:29;;;;;;;7.68;5.30;;;;;;;17.84;78.76;94979.66;4977265;28;20437;-82
2022/06/11 05:54:55;;;;;;;8.55;5.55;;;;;;;17.98;77.84;94986.50;4991533;28;20030;-86
2022/06/11 05:57:23;;;;;;;7.05;4.72;;;;;;;18.00;77.93;94978.97;4991062;28;20029;-82
2022/06/11 05:59:55;;;;;;;6.70;4.63;;;;;;;17.92;78.10;94982.03;4975420;28;20054;-85
2022/06/11 06:02:21;;;;;;;7.55;4.93;;;;;;;18.01;77.54;94979.78;4991835;28;20029;-83
2022/06/11 06:04:47;;;;;;;6.60;4.65;;;;;;;18.10;77.41;94986.53;4993262;28;20531;-83
2022/06/11 06:07:12;;;;;;;6.45;4.97;;;;;;;18.19;77.33;94988.91;5007083;28;20113;-84
2022/06/11 06:09:38;;;;;;;6.13;4.93;;;;;;;18.25;77.73;94996.91;4991544;28;20385;-83
2022/06/11 06:12:04;;;;;;;6.43;4.70;;;;;;;18.29;77.49;95002.72;5023143;28;20030;-84
2022/06/11 06:14:30;;;;;;;7.07;4.90;;;;;;;18.25;77.24;95001.53;5007336;28;20451;-84
2022/06/11 06:16:56;;;;;;;6.70;4.70;;;;;;;18.33;76.48;95003.88;4990917;28;20029;-84
2022/06/11 06:19:22;;;;;;;8.35;5.88;;;;;;;18.35;76.99;95006.34;4990627;28;20026;-84
2022/06/11 06:21:47;;;;;;;7.10;5.38;;;;;;;18.36;77.20;94997.97;5023884;28;20114;-85
2022/06/11 06:24:13;;;;;;;8.88;5.03;;;;;;;18.30;76.68;94996.22;4990046;28;20068;-83
2022/06/11 06:26:38;;;;;;;6.43;5.15;;;;;;;18.34;76.18;95000.13;4991215;28;20049;-84
2022/06/11 06:29:04;;;;;;;6.85;5.28;;;;;;;18.38;76.41;95004.00;5005777;28;20156;-84
2022/06/11 06:31:30;;;;;;;7.45;4.93;;;;;;;18.49;75.61;95004.25;4990902;28;20052;-82
2022/06/11 06:33:58;;;;;;;7.90;4.10;;;;;;;18.56;74.89;95006.81;4990548;28;20069;-84
2022/06/11 06:36:24;;;;;;;5.05;4.00;;;;;;;18.65;74.49;95008.91;5007033;28;20084;-84
2022/06/11 06:38:51;;;;;;;5.47;4.03;;;;;;;18.71;74.02;95014.47;4995187;28;20034;-84
2022/06/11 06:41:16;;;;;;;5.13;3.67;;;;;;;18.73;74.63;95018.59;5008265;28;20204;-83
2022/06/11 06:43:42;;;;;;;6.28;3.78;;;;;;;18.71;74.46;95015.31;5008763;28;20494;-84
2022/06/11 06:46:08;;;;;;;5.05;3.60;;;;;;;18.70;74.47;95023.69;4991300;28;20084;-84
2022/06/11 06:48:33;;;;;;;5.65;4.05;;;;;;;18.74;73.03;95019.41;4991830;28;20041;-85
2022/06/11 06:50:58;;;;;;;4.78;3.58;;;;;;;18.75;74.13;95019.19;4989530;28;20040;-84
2022/06/11 06:53:25;;;;;;;4.63;3.60;;;;;;;18.77;74.87;95013.50;5007311;28;20533;-85
2022/06/11 06:55:51;;;;;;;5.63;3.90;;;;;;;18.85;75.16;95018.56;4989889;28;20045;-85
2022/06/11 06:58:16;;;;;;;6.07;3.92;;;;;;;18.95;74.90;95022.56;5022706;28;20046;-85
2022/06/11 07:00:43;;;;;;;4.80;4.00;;;;;;;18.95;74.92;95020.69;5006283;28;20026;-85
2022/06/11 07:03:11;;;;;;;5.30;3.45;;;;;;;18.99;73.50;95021.03;4989428;28;20546;-84
2022/06/11 07:05:37;;;;;;;4.47;3.60;;;;;;;19.05;74.53;95017.34;4991061;28;20017;-86
2022/06/11 07:08:02;;;;;;;5.45;4.20;;;;;;;19.12;74.79;95019.97;5022009;28;20103;-85
2022/06/11 07:10:28;;;;;;;4.93;3.60;;;;;;;19.10;73.62;95016.66;5007056;28;20076;-83
2022/06/11 07:12:54;;;;;;;6.18;3.95;;;;;;;19.08;72.80;95013.31;5022707;28;20400;-84
2022/06/11 07:15:19;;;;;;;5.38;4.35;;;;;;;19.10;72.17;95022.09;4990098;28;20459;-85
2022/06/11 07:17:54;;;;;;;6.00;3.78;;;;;;;19.09;71.48;95021.25;4989346;28;20476;-84
2022/06/11 07:20:21;;;;;;;5.28;3.60;;;;;;;19.18;71.23;95024.44;5007011;28;20036;-86
2022/06/11 07:23:00;;;;;;;7.47;3.83;;;;;;;19.29;71.40;95030.88;4991451;28;20072;-84
2022/06/11 07:25:26;;;;;;;4.05;3.47;;;;;;;19.42;72.17;95040.66;4991733;28;20030;-83
2022/06/11 07:27:55;;;;;;;5.57;3.97;;;;;;;19.55;72.58;95039.53;5009536;28;20026;-84
2022/06/11 07:30:22;;;;;;;8.00;4.10;;;;;;;19.61;72.72;95041.28;4991961;28;20026;-84
2022/06/11 07:32:51;;;;;;;4.68;3.92;;;;;;;19.72;71.08;95038.72;5006207;28;20030;-84
2022/06/11 07:35:17;;;;;;;4.82;3.95;;;;;;;19.76;70.93;95042.63;5006805;28;20030;-84
2022/06/11 07:37:43;;;;;;;5.80;4.07;;;;;;;19.84;71.02;95036.78;4991877;28;20114;-83
2022/06/11 07:40:09;;;;;;;7.18;4.78;;;;;;;19.95;71.81;95034.22;5022464;28;20029;-83
2022/06/11 07:42:34;;;;;;;5.97;4.65;;;;;;;19.98;71.75;95037.28;5005280;28;20401;-82
2022/06/11 07:45:00;;;;;;;5.22;4.13;;;;;;;19.97;71.28;95041.09;5008039;28;20022;-83
2022/06/11 07:50:12;;;;;;;6.10;4.72;;;;;;;20.22;70.48;95041.75;5005671;28;20511;-83
2022/06/11 07:52:39;;;;;;;7.65;5.47;;;;;;;20.23;68.34;95046.94;5005680;28;20112;-84
2022/06/11 07:55:05;;;;;;;6.35;5.75;;;;;;;20.18;68.35;95051.50;4988735;28;20044;-84
2022/06/11 07:57:30;;;;;;;7.28;5.43;;;;;;;20.09;68.05;95046.47;4989075;28;20092;-82
2022/06/11 07:59:56;;;;;;;8.10;6.05;;;;;;;20.06;67.06;95048.84;5004701;28;20030;-83
2022/06/11 08:02:21;;;;;;;6.90;5.28;;;;;;;19.84;67.53;95047.66;5006416;28;20034;-83
2022/06/11 08:04:47;;;;;;;8.15;5.93;;;;;;;19.83;67.89;95051.44;4988202;28;20057;-82
2022/06/11 08:07:12;;;;;;;6.85;5.63;;;;;;;19.84;68.16;95046.81;5005502;28;20033;-84
2022/06/11 08:09:38;;;;;;;9.55;6.10;;;;;;;19.92;67.40;95048.31;4988615;28;20026;-82
2022/06/11 08:12:04;;;;;;;7.70;6.10;;;;;;;19.92;68.75;95038.25;4988386;28;20026;-83
2022/06/11 08:14:29;;;;;;;6.47;5.53;;;;;;;19.98;69.07;95047.31;5004855;28;20038;-81
2022/06/11 08:16:55;;;;;;;6.47;5.20;;;;;;;20.02;67.77;95053.94;4987818;28;20030;-81
2022/06/11 08:19:21;;;;;;;6.53;5.18;;;;;;;20.04;67.65;95057.25;5004935;28;20022;-82
2022/06/11 08:21:46;;;;;;;6.35;5.25;;;;;;;20.04;67.22;95054.53;5020492;28;20032;-82
2022/06/11 08:24:12;;;;;;;5.88;5.05;;;;;;;19.98;67.35;95058.22;5006570;28;20409;-82
2022/06/11 08:26:40;;;;;;;7.72;5.40;;;;;;;20.06;67.36;95052.41;5004436;28;20455;-83
2022/06/11 08:29:06;;;;;;;7.43;5.80;;;;;;;20.32;67.73;95051.97;5006789;28;20088;-82
2022/06/11 08:31:31;;;;;;;6.05;4.47;;;;;;;20.28;65.62;95040.75;4990531;28;20026;-81
2022/06/11 08:33:57;;;;;;;7.35;5.32;;;;;;;20.30;67.13;95054.13;5008902;28;20041;-82
2022/06/11 08:36:22;;;;;;;7.13;5.10;;;;;;;20.22;65.90;95052.66;5005074;28;20037;-81
2022/06/11 08:38:47;;;;;;;7.93;5.75;;;;;;;20.13;68.23;95053.06;4972124;28;20030;-83
2022/06/11 08:41:17;;;;;;;6.75;5.20;;;;;;;20.09;70.10;95049.19;4989197;28;20034;-81
2022/06/11 08:43:50;;;;;;;6.13;4.97;;;;;;;20.13;70.48;95055.78;4988751;28;20029;-82
2022/06/11 08:46:17;;;;;;;;;;;;;;;20.21;66.19;95046.41;5022374;28;20029;-82
2022/06/11 08:48:43;;;;;;;6.55;5.05;;;;;;;20.15;66.73;95044.66;5005133;28;20303;-81
2022/06/11 08:51:09;;;;;;;7.25;4.47;;;;;;;20.31;67.49;95042.19;5011203;28;20026;-82
2022/06/11 08:53:36;;;;;;;5.15;4.22;;;;;;;20.31;67.39;95047.63;5006359;28;20049;-83
2022/06/11 08:56:01;;;;;;;5.47;4.03;;;;;;;20.32;66.00;95039.19;5004569;28;20087;-83
2022/06/11 08:58:44;;;;;;;7.05;3.75;;;;;;;20.41;65.52;95038.78;4988373;28;20050;-83
2022/06/11 09:01:16;;;;;;;5.18;4.22;;;;;;;20.42;65.40;95040.44;4988022;28;20559;-84
2022/06/11 09:03:58;;;;;;;7.18;4.68;;;;;;;20.42;65.68;95040.44;5005243;28;20489;-83
2022/06/11 09:06:31;;;;;;;6.05;4.40;;;;;;;20.40;66.63;95039.84;5004166;28;20033;-83
2022/06/11 09:09:09;;;;;;;5.22;3.83;;;;;;;20.40;65.92;95037.13;5004485;28;20022;-84
2022/06/11 09:11:46;;;;;;;8.43;4.00;;;;;;;20.55;65.34;95033.81;5004593;28;20049;-84
2022/06/11 09:14:33;;;;;;;8.35;4.93;;;;;;;20.61;66.63;95039.09;5005003;28;20026;-84
2022/06/11 09:17:08;;;;;;;6.38;4.63;;;;;;;20.74;66.94;95035.19;5005101;28;20443;-84
2022/06/11 09:19:51;;;;;;;7.55;4.90;;;;;;;20.80;66.10;95030.59;5006001;28;20094;-84
2022/06/11 09:22:54;;;;;;;5.95;4.38;;;;;;;20.89;66.64;95022.84;5003744;28;20034;-86
2022/06/11 09:25:25;;;;;;;6.78;4.43;;;;;;;20.80;65.77;95041.50;5006278;28;20030;-83
2022/06/11 09:27:58;;;;;;;6.38;4.80;;;;;;;20.80;66.54;95022.44;5004348;28;20040;-83
2022/06/11 09:30:39;;;;;;;7.93;5.28;;;;;;;20.62;65.62;95024.38;4990793;28;20037;-83
2022/06/11 09:33:12;;;;;;;6.75;4.60;;;;;;;20.56;65.84;95024.56;4992629;28;20033;-84
2022/06/11 09:35:46;;;;;;;5.30;4.25;;;;;;;20.64;66.18;95021.41;5023598;28;20056;-83
2022/06/11 09:38:30;;;;;;;5.38;3.38;;;;;;;20.69;65.86;95024.19;5025074;28;20493;-85
2022/06/11 09:41:21;;;;;;;5.22;3.30;;;;;;;20.58;64.23;95023.25;5008970;28;20034;-84
2022/06/11 09:43:59;;;;;;;6.43;3.90;;;;;;;20.81;63.67;95023.28;4993052;28;20053;-82
2022/06/11 09:46:43;;;;;;;4.55;3.47;;;;;;;20.87;64.99;95028.53;5008205;28;20028;-84
2022/06/11 09:49:34;;;;;;;4.22;3.42;;;;;;;20.80;63.39;95032.50;5009075;28;20029;-83
2022/06/11 09:52:09;;;;;;;3.58;2.85;;;;;;;20.99;63.85;95033.88;5024023;28;20104;-83
2022/06/11 09:54:38;;;;;;;3.53;3.20;;;;;;;21.07;64.04;95038.06;5007995;28;20026;-84
2022/06/11 09:57:04;;;;;;;7.07;3.97;;;;;;;21.31;64.67;95035.06;5006976;28;20038;-83
2022/06/11 09:59:43;;;;;;;5.10;3.28;;;;;;;21.50;63.10;95040.19;5008115;28;20120;-84
2022/06/11 10:02:31;;;;;;;3.97;3.53;;;;;;;21.46;63.41;95030.88;5006914;28;20022;-83
2022/06/11 10:04:54;;;;;;;4.25;3.00;;;;;;;21.48;62.19;95026.81;5008724;28;20092;-84
2022/06/11 10:07:25;;;;;;;4.47;3.00;;;;;;;21.67;61.71;95020.16;5007621;28;20026;-82
2022/06/11 10:10:10;;;;;;;3.60;3.00;;;;;;;21.67;62.68;95021.00;4990922;28;20415;-83
2022/06/11 10:12:45;;;;;;;3.53;2.58;;;;;;;21.55;63.61;95021.16;5008001;28;20030;-84
2022/06/11 10:15:14;;;;;;;2.95;2.47;;;;;;;21.25;64.83;95027.91;5006904;28;20053;-84
2022/06/11 10:17:55;;;;;;;2.88;1.55;;;;;;;20.97;66.91;95037.94;5007252;28;20026;-85
2022/06/11 10:20:29;;;;;;;7.65;2.28;;;;;;;20.70;68.02;95041.38;5008739;28;20433;-82
2022/06/11 10:23:13;;;;;;;5.85;2.20;;;;;;;20.59;69.69;95054.84;4992768;28;20109;-83
2022/06/11 10:26:01;;;;;;;6.28;2.42;;;;;;;20.53;69.97;95058.56;5014105;28;20097;-82
2022/06/11 10:28:36;;;;;;;5.82;1.95;;;;;;;20.67;69.20;95064.50;5006707;28;20026;-83
2022/06/11 10:31:11;;;;;;;4.38;2.08;;;;;;;20.52;70.75;95059.66;4990709;28;20022;-82
2022/06/11 10:33:50;;;;;;;8.05;2.30;;;;;;;20.09;72.29;95065.50;5007183;28;20044;-83
2022/06/11 10:36:24;;;;;;;7.07;2.08;;;;;;;20.22;72.33;95060.81;5006632;28;20037;-83
2022/06/11 10:39:00;;;;;;;4.03;2.10;;;;;;;20.30;72.93;95065.00;5007162;28;20113;-83
2022/06/11 10:41:48;;;;;;;6.63;2.00;;;;;;;20.39;72.79;95063.53;5005705;28;20034;-82
2022/06/11 10:44:26;;;;;;;6.03;2.13;;;;;;;20.39;73.29;95069.00;5006236;28;20041;-83
2022/06/11 10:46:52;;;;;;;4.93;1.98;;;;;;;20.32;72.50;95074.59;5006570;28;20109;-85
2022/06/11 10:49:18;;;;;;;8.23;3.22;;;;;;;20.28;72.11;95076.16;5007133;28;20025;-82
2022/06/11 10:51:51;;;;;;;5.32;1.80;;;;;;;20.22;72.69;95074.41;4990268;28;20556;-83
2022/06/11 10:54:21;;;;;;;4.10;2.05;;;;;;;20.19;73.12;95069.47;4989624;28;20037;-83
2022/06/11 10:56:56;;;;;;;3.47;1.60;;;;;;;20.29;72.83;95069.66;5005884;28;20022;-84
2022/06/11 10:59:33;;;;;;;4.35;2.03;;;;;;;20.34;70.86;95064.28;5006592;28;20081;-83
2022/06/11 11:02:23;;;;;;;3.28;1.70;;;;;;;20.35;71.84;95065.94;4990490;28;20033;-82
2022/06/11 11:05:04;;;;;;;2.88;1.90;;;;;;;20.51;71.37;95074.34;4992102;28;20455;-82
2022/06/11 11:07:55;;;;;;;2.40;1.70;;;;;;;20.66;71.37;95072.91;4989795;28;20034;-83
2022/06/11 11:10:34;;;;;;;3.75;1.92;;;;;;;20.75;70.80;95077.69;5006596;28;20216;-83
2022/06/11 11:13:04;;;;;;;3.15;1.73;;;;;;;20.92;71.24;95071.41;5006497;28;20029;-83
2022/06/11 11:15:37;;;;;;;3.97;2.03;;;;;;;20.92;70.07;95065.13;5004892;28;20030;-82
2022/06/11 11:18:17;;;;;;;2.55;1.52;;;;;;;21.09;70.38;95067.78;5022756;28;20415;-83
2022/06/11 11:20:42;;;;;;;3.95;1.70;;;;;;;21.22;69.22;95070.16;5023415;28;20030;-82
2022/06/11 11:23:18;;;;;;;5.88;2.67;;;;;;;21.32;67.92;95072.19;5021864;28;20028;-83
2022/06/11 11:25:53;;;;;;;2.70;1.95;;;;;;;21.21;68.71;95073.13;5006159;28;20153;-83
2022/06/11 11:28:30;;;;;;;3.72;1.98;;;;;;;21.10;68.92;95070.28;4988376;28;20034;-84
2022/06/11 11:31:01;;;;;;;3.38;1.98;;;;;;;21.21;69.50;95070.41;5006449;28;20404;-83
2022/06/11 11:33:29;;;;;;;2.75;1.90;;;;;;;21.37;67.56;95071.41;4989248;28;20132;-83
2022/06/11 11:36:18;;;;;;;3.97;1.80;;;;;;;21.48;64.73;95066.91;5005144;28;20032;-83
2022/06/11 11:38:44;;;;;;;2.47;1.67;;;;;;;21.56;66.10;95062.88;5024803;28;20026;-83
2022/06/11 11:41:22;;;;;;;2.88;1.77;;;;;;;21.56;66.17;95058.25;5004450;28;20045;-83
2022/06/11 11:43:49;;;;;;;2.42;1.70;;;;;;;21.56;66.36;95058.25;4989790;28;20033;-82
2022/06/11 11:46:20;;;;;;;2.20;1.70;;;;;;;21.46;66.06;95058.13;4988945;28;20077;-83